Time,TemperatureF,DewpointF,PressureIn,WindDirection,WindDirectionDegrees,WindSpeedMPH,WindSpeedGustMPH,Humidity,HourlyPrecipIn,Conditions,Clouds,dailyrainin,SoftwareType,DateUTC
2013-08-02 00:12:00,64.0,56.0,-100.00,West,265,3.0,4.0,75,-99.99,,,-99.99,,2013-08-02 04:12:00,
2013-08-02 00:22:00,64.0,57.0,-100.00,West,265,2.0,4.0,76,-99.99,,,-99.99,,2013-08-02 04:22:00,
2013-08-02 00:33:00,64.0,56.0,-100.00,West,275,2.0,4.0,76,-99.99,,,-99.99,,2013-08-02 04:33:00,
2013-08-02 00:43:00,64.0,56.0,-100.00,West,260,2.0,4.0,77,-99.99,,,-99.99,,2013-08-02 04:43:00,
2013-08-02 01:02:00,63.0,56.0,-100.00,WSW,245,2.0,6.0,77,-99.99,,,-99.99,,2013-08-02 05:02:00,
2013-08-02 01:32:00,63.0,56.0,-100.00,West,260,2.0,4.0,77,-99.99,,,-99.99,,2013-08-02 05:32:00,
2013-08-02 01:53:00,62.0,56.0,-100.00,WSW,245,3.0,5.0,80,-99.99,,,-99.99,,2013-08-02 05:53:00,
2013-08-02 02:02:00,61.0,55.0,-100.00,SW,230,3.0,4.0,81,-99.99,,,-99.99,,2013-08-02 06:02:00,
2013-08-02 02:12:00,61.0,56.0,-100.00,WSW,240,4.0,6.0,82,-99.99,,,-99.99,,2013-08-02 06:12:00,
2013-08-02 02:22:00,61.0,56.0,-100.00,WSW,255,3.0,6.0,81,-99.99,,,-99.99,,2013-08-02 06:22:00,
2013-08-02 02:33:00,62.0,56.0,-100.00,WNW,290,2.0,4.0,80,-99.99,,,-99.99,,2013-08-02 06:33:00,
2013-08-02 02:43:00,61.0,55.0,-100.00,WSW,255,2.0,4.0,81,-99.99,,,-99.99,,2013-08-02 06:43:00,
2013-08-02 02:52:00,61.0,55.0,-100.00,WSW,240,2.0,5.0,82,-99.99,,,-99.99,,2013-08-02 06:52:00,
2013-08-02 03:02:00,59.0,55.0,-100.00,SW,230,2.0,3.0,84,-99.99,,,-99.99,,2013-08-02 07:02:00,
2013-08-02 03:12:00,59.0,55.0,-100.00,SW,225,2.0,3.0,85,-99.99,,,-99.99,,2013-08-02 07:12:00,
2013-08-02 03:22:00,58.0,54.0,-100.00,SSW,200,1.0,4.0,86,-99.99,,,-99.99,,2013-08-02 07:22:00,
2013-08-02 03:33:00,57.0,54.0,-100.00,SW,215,1.0,2.0,88,-99.99,,,-99.99,,2013-08-02 07:33:00,
2013-08-02 03:44:00,58.0,55.0,-100.00,SW,235,4.0,6.0,89,-99.99,,,-99.99,,2013-08-02 07:44:00,
2013-08-02 03:53:00,59.0,56.0,-100.00,WSW,250,4.0,6.0,87,-99.99,,,-99.99,,2013-08-02 07:53:00,
2013-08-02 04:02:00,59.0,55.0,-100.00,SW,235,4.0,6.0,84,-99.99,,,-99.99,,2013-08-02 08:02:00,
2013-08-02 04:12:00,58.0,55.0,-100.00,SW,225,5.0,6.0,87,-99.99,,,-99.99,,2013-08-02 08:12:00,
2013-08-02 04:22:00,59.0,55.0,-100.00,SW,235,4.0,7.0,86,-99.99,,,-99.99,,2013-08-02 08:22:00,
2013-08-02 04:33:00,58.0,55.0,-100.00,SW,225,5.0,6.0,87,-99.99,,,-99.99,,2013-08-02 08:33:00,
2013-08-02 04:43:00,58.0,55.0,-100.00,SW,235,5.0,6.0,87,-99.99,,,-99.99,,2013-08-02 08:43:00,
2013-08-02 04:54:00,58.0,55.0,-100.00,SW,235,6.0,6.0,87,-99.99,,,-99.99,,2013-08-02 08:54:00,
2013-08-02 05:02:00,58.0,55.0,-100.00,SW,235,5.0,7.0,88,-99.99,,,-99.99,,2013-08-02 09:02:00,
2013-08-02 05:12:00,58.0,55.0,-100.00,SW,230,6.0,7.0,88,-99.99,,,-99.99,,2013-08-02 09:12:00,
2013-08-02 05:23:00,58.0,55.0,-100.00,SW,235,4.0,6.0,88,-99.99,,,-99.99,,2013-08-02 09:23:00,
2013-08-02 05:53:00,59.0,55.0,-100.00,WSW,245,4.0,7.0,86,-99.99,,,-99.99,,2013-08-02 09:53:00,
2013-08-02 06:03:00,59.0,55.0,-100.00,WSW,245,5.0,7.0,86,-99.99,,,-99.99,,2013-08-02 10:03:00,
2013-08-02 06:23:00,59.0,55.0,-100.00,SW,235,4.0,7.0,86,-99.99,,,-99.99,,2013-08-02 10:23:00,
2013-08-02 06:33:00,59.0,55.0,-100.00,SW,235,4.0,7.0,86,-99.99,,,-99.99,,2013-08-02 10:33:00,
2013-08-02 06:43:00,58.0,54.0,-100.00,SW,225,4.0,6.0,88,-99.99,,,-99.99,,2013-08-02 10:43:00,
2013-08-02 06:52:00,58.0,54.0,-100.00,SW,225,4.0,6.0,88,-99.99,,,-99.99,,2013-08-02 10:52:00,
2013-08-02 07:32:00,59.0,56.0,-100.00,SSW,210,4.0,6.0,89,-99.99,,,-99.99,,2013-08-02 11:32:00,
2013-08-02 07:43:00,59.0,56.0,-100.00,SSW,210,4.0,6.0,89,-99.99,,,-99.99,,2013-08-02 11:43:00,
2013-08-02 08:12:00,62.0,56.0,-100.00,SW,230,4.0,6.0,82,-99.99,,,-99.99,,2013-08-02 12:12:00,
2013-08-02 08:33:00,63.0,57.0,-100.00,SW,230,3.0,8.0,81,-99.99,,,-99.99,,2013-08-02 12:33:00,
2013-08-02 08:43:00,62.0,57.0,-100.00,SW,230,4.0,7.0,82,-99.99,,,-99.99,,2013-08-02 12:43:00,
2013-08-02 08:52:00,62.0,57.0,-100.00,SW,230,5.0,7.0,83,-99.99,,,-99.99,,2013-08-02 12:52:00,
2013-08-02 09:02:00,65.0,59.0,-100.00,SSW,205,2.0,6.0,81,-99.99,,,-99.99,,2013-08-02 13:02:00,
2013-08-02 09:33:00,67.0,59.0,-100.00,SW,225,4.0,10.0,75,-99.99,,,-99.99,,2013-08-02 13:33:00,
2013-08-02 09:43:00,69.0,59.0,-100.00,SW,215,2.0,6.0,71,-99.99,,,-99.99,,2013-08-02 13:43:00,
2013-08-02 10:02:00,70.0,59.0,-100.00,WSW,245,5.0,8.0,68,-99.99,,,-99.99,,2013-08-02 14:02:00,
2013-08-02 10:32:00,70.0,59.0,-100.00,WSW,250,6.0,9.0,68,-99.99,,,-99.99,,2013-08-02 14:32:00,
2013-08-02 10:43:00,70.0,59.0,-100.00,WSW,240,7.0,9.0,69,-99.99,,,-99.99,,2013-08-02 14:43:00,
2013-08-02 10:53:00,70.0,60.0,-100.00,SW,235,5.0,8.0,70,-99.99,,,-99.99,,2013-08-02 14:53:00,
2013-08-02 11:03:00,70.0,60.0,-100.00,SW,235,4.0,6.0,70,-99.99,,,-99.99,,2013-08-02 15:03:00,
2013-08-02 11:12:00,70.0,60.0,-100.00,SW,220,3.0,6.0,71,-99.99,,,-99.99,,2013-08-02 15:12:00,
2013-08-02 11:22:00,70.0,60.0,-100.00,SW,230,4.0,9.0,71,-99.99,,,-99.99,,2013-08-02 15:22:00,
2013-08-02 11:32:00,70.0,59.0,-100.00,WSW,240,6.0,10.0,69,-99.99,,,-99.99,,2013-08-02 15:32:00,
2013-08-02 11:43:00,70.0,59.0,-100.00,WSW,240,6.0,10.0,69,-99.99,,,-99.99,,2013-08-02 15:43:00,
2013-08-02 11:52:00,70.0,59.0,-100.00,WSW,240,6.0,10.0,69,-99.99,,,-99.99,,2013-08-02 15:52:00,
2013-08-02 12:02:00,68.0,61.0,-100.00,WSW,245,4.0,9.0,78,-99.99,,,-99.99,,2013-08-02 16:02:00,
2013-08-02 12:12:00,68.0,61.0,-100.00,WSW,245,4.0,9.0,78,-99.99,,,-99.99,,2013-08-02 16:12:00,
2013-08-02 12:32:00,68.0,63.0,-100.00,SW,230,7.0,12.0,84,-99.99,,,-99.99,,2013-08-02 16:32:00,
2013-08-02 12:43:00,67.0,62.0,-100.00,SW,230,8.0,15.0,83,-99.99,,,-99.99,,2013-08-02 16:43:00,
2013-08-02 12:53:00,67.0,61.0,-100.00,SW,230,8.0,22.0,83,-99.99,,,-99.99,,2013-08-02 16:53:00,
2013-08-02 13:02:00,65.0,61.0,-100.00,SSW,210,13.0,20.0,84,-99.99,,,-99.99,,2013-08-02 17:02:00,
2013-08-02 13:12:00,65.0,61.0,-100.00,SW,225,10.0,17.0,86,-99.99,,,-99.99,,2013-08-02 17:12:00,
2013-08-02 13:22:00,65.0,61.0,-100.00,SW,225,10.0,17.0,86,-99.99,,,-99.99,,2013-08-02 17:22:00,
2013-08-02 13:35:00,65.0,61.0,-100.00,SW,225,10.0,17.0,86,-99.99,,,-99.99,,2013-08-02 17:35:00,
2013-08-02 14:22:00,67.0,63.0,-100.00,SSW,200,6.0,14.0,86,-99.99,,,-99.99,,2013-08-02 18:22:00,
2013-08-02 14:32:00,68.0,63.0,-100.00,SSW,210,9.0,16.0,83,-99.99,,,-99.99,,2013-08-02 18:32:00,
2013-08-02 14:43:00,69.0,62.0,-100.00,South,190,11.0,16.0,80,-99.99,,,-99.99,,2013-08-02 18:43:00,
2013-08-02 14:52:00,69.0,62.0,-100.00,South,190,11.0,16.0,80,-99.99,,,-99.99,,2013-08-02 18:52:00,
2013-08-02 15:02:00,69.0,62.0,-100.00,South,190,11.0,16.0,80,-99.99,,,-99.99,,2013-08-02 19:02:00,
2013-08-02 15:12:00,69.0,62.0,-100.00,SSW,205,9.0,15.0,78,-99.99,,,-99.99,,2013-08-02 19:12:00,
2013-08-02 15:32:00,69.0,62.0,-100.00,SSW,195,8.0,12.0,77,-99.99,,,-99.99,,2013-08-02 19:32:00,
2013-08-02 15:43:00,69.0,62.0,-100.00,SSW,195,8.0,12.0,77,-99.99,,,-99.99,,2013-08-02 19:43:00,
2013-08-02 16:02:00,72.0,63.0,-100.00,South,175,6.0,12.0,73,-99.99,,,-99.99,,2013-08-02 20:02:00,
2013-08-02 16:32:00,72.0,62.0,-100.00,SSW,205,11.0,16.0,70,-99.99,,,-99.99,,2013-08-02 20:32:00,
2013-08-02 16:43:00,72.0,63.0,-100.00,SSW,200,7.0,13.0,71,-99.99,,,-99.99,,2013-08-02 20:43:00,
2013-08-02 16:52:00,72.0,61.0,-100.00,SSW,200,9.0,16.0,68,-99.99,,,-99.99,,2013-08-02 20:52:00,
2013-08-02 17:03:00,73.0,62.0,-100.00,SSW,205,9.0,14.0,69,-99.99,,,-99.99,,2013-08-02 21:03:00,
2013-08-02 17:22:00,73.0,62.0,-100.00,SSW,200,10.0,19.0,70,-99.99,,,-99.99,,2013-08-02 21:22:00,
2013-08-02 17:32:00,71.0,63.0,-100.00,SSW,205,7.0,16.0,75,-99.99,,,-99.99,,2013-08-02 21:32:00,
2013-08-02 17:53:00,70.0,64.0,-100.00,South,190,7.0,12.0,80,-99.99,,,-99.99,,2013-08-02 21:53:00,
2013-08-02 18:02:00,71.0,66.0,-100.00,South,185,6.0,10.0,85,-99.99,,,-99.99,,2013-08-02 22:02:00,
2013-08-02 18:22:00,71.0,66.0,-100.00,South,170,6.0,13.0,83,-99.99,,,-99.99,,2013-08-02 22:22:00,
2013-08-02 18:32:00,72.0,67.0,-100.00,South,175,7.0,12.0,82,-99.99,,,-99.99,,2013-08-02 22:32:00,
2013-08-02 18:43:00,72.0,67.0,-100.00,South,170,7.0,12.0,83,-99.99,,,-99.99,,2013-08-02 22:43:00,
2013-08-02 18:52:00,72.0,66.0,-100.00,South,185,6.0,14.0,82,-99.99,,,-99.99,,2013-08-02 22:52:00,
2013-08-02 19:02:00,71.0,67.0,-100.00,South,185,7.0,11.0,85,-99.99,,,-99.99,,2013-08-02 23:02:00,
2013-08-02 19:12:00,71.0,67.0,-100.00,South,185,9.0,13.0,87,-99.99,,,-99.99,,2013-08-02 23:12:00,
2013-08-02 19:22:00,71.0,67.0,-100.00,South,185,9.0,13.0,87,-99.99,,,-99.99,,2013-08-02 23:22:00,
2013-08-02 19:32:00,71.0,68.0,-100.00,SSW,200,7.0,14.0,90,-99.99,,,-99.99,,2013-08-02 23:32:00,
2013-08-02 19:43:00,70.0,68.0,-100.00,South,190,5.0,11.0,92,-99.99,,,-99.99,,2013-08-02 23:43:00,
2013-08-02 19:53:00,70.0,68.0,-100.00,South,190,4.0,9.0,93,-99.99,,,-99.99,,2013-08-02 23:53:00,
2013-08-02 20:02:00,70.0,68.0,-100.00,South,190,5.0,7.0,94,-99.99,,,-99.99,,2013-08-03 00:02:00,
2013-08-02 20:12:00,71.0,69.0,-100.00,SSW,195,6.0,9.0,94,-99.99,,,-99.99,,2013-08-03 00:12:00,
2013-08-02 20:22:00,71.0,69.0,-100.00,SW,215,7.0,15.0,93,-99.99,,,-99.99,,2013-08-03 00:22:00,
2013-08-02 20:33:00,71.0,69.0,-100.00,SW,225,10.0,14.0,92,-99.99,,,-99.99,,2013-08-03 00:33:00,
2013-08-02 20:43:00,72.0,69.0,-100.00,SW,235,10.0,18.0,90,-99.99,,,-99.99,,2013-08-03 00:43:00,
2013-08-02 20:52:00,71.0,69.0,-100.00,SW,235,9.0,14.0,90,-99.99,,,-99.99,,2013-08-03 00:52:00,
2013-08-02 21:03:00,71.0,69.0,-100.00,SW,235,10.0,15.0,92,-99.99,,,-99.99,,2013-08-03 01:03:00,
2013-08-02 21:12:00,71.0,69.0,-100.00,SW,235,7.0,16.0,92,-99.99,,,-99.99,,2013-08-03 01:12:00,
2013-08-02 21:22:00,71.0,69.0,-100.00,WSW,240,5.0,10.0,93,-99.99,,,-99.99,,2013-08-03 01:22:00,
2013-08-02 21:32:00,70.0,69.0,-100.00,WSW,240,6.0,12.0,94,-99.99,,,-99.99,,2013-08-03 01:32:00,
2013-08-02 21:42:00,70.0,69.0,-100.00,SW,235,6.0,10.0,95,-99.99,,,-99.99,,2013-08-03 01:42:00,
2013-08-02 21:53:00,70.0,68.0,-100.00,SW,225,7.0,10.0,95,-99.99,,,-99.99,,2013-08-03 01:53:00,
2013-08-02 22:02:00,70.0,69.0,-100.00,WSW,240,7.0,10.0,95,-99.99,,,-99.99,,2013-08-03 02:02:00,
2013-08-02 22:12:00,70.0,68.0,-100.00,SW,230,7.0,9.0,95,-99.99,,,-99.99,,2013-08-03 02:12:00,
2013-08-02 22:22:00,69.0,68.0,-100.00,SW,230,6.0,9.0,96,-99.99,,,-99.99,,2013-08-03 02:22:00,
2013-08-02 22:32:00,69.0,68.0,-100.00,WSW,250,4.0,12.0,96,-99.99,,,-99.99,,2013-08-03 02:32:00,
2013-08-02 22:43:00,69.0,68.0,-100.00,WSW,240,7.0,14.0,94,-99.99,,,-99.99,,2013-08-03 02:43:00,
2013-08-02 23:03:00,69.0,67.0,-100.00,WSW,240,12.0,17.0,93,-99.99,,,-99.99,,2013-08-03 03:03:00,
2013-08-02 23:53:00,68.0,67.0,-100.00,West,270,6.0,12.0,96,-99.99,,,-99.99,,2013-08-03 03:53:00,